createdAt,value
2018-12-19T00:01:58.585Z,6.13
2018-12-19T00:04:26.193Z,4.13
2018-12-19T00:06:53.738Z,3.53
2018-12-19T00:09:21.250Z,3.87
2018-12-19T00:11:48.751Z,4.73
2018-12-19T00:14:16.270Z,3.97
2018-12-19T00:16:43.765Z,4.07
2018-12-19T00:19:11.285Z,3.77
2018-12-19T00:21:38.786Z,5.03
2018-12-19T00:24:06.313Z,6.33
2018-12-19T00:26:33.828Z,5.77
2018-12-19T00:29:01.358Z,5.17
2018-12-19T00:31:28.863Z,5.20
2018-12-19T00:33:56.408Z,4.80
2018-12-19T00:36:23.911Z,3.83
2018-12-19T00:38:51.410Z,5.23
2018-12-19T00:41:18.925Z,3.83
2018-12-19T00:43:46.422Z,5.43
2018-12-19T00:46:13.947Z,3.70
2018-12-19T00:48:41.441Z,3.50
2018-12-19T00:51:08.958Z,4.20
2018-12-19T00:53:36.453Z,5.80
2018-12-19T00:56:03.988Z,3.80
2018-12-19T00:58:31.493Z,4.40
2018-12-19T01:00:59.010Z,4.03
2018-12-19T01:03:26.500Z,5.00
2018-12-19T01:05:54.018Z,3.77
2018-12-19T01:08:21.513Z,5.33
2018-12-19T01:10:49.089Z,2.97
2018-12-19T01:13:16.594Z,3.90
2018-12-19T01:15:44.121Z,3.40
2018-12-19T01:18:11.623Z,4.20
2018-12-19T01:20:39.133Z,3.33
2018-12-19T01:23:06.633Z,4.50
2018-12-19T01:25:34.154Z,3.20
2018-12-19T01:28:01.653Z,4.67
2018-12-19T01:30:29.169Z,4.03
2018-12-19T01:32:56.666Z,3.20
2018-12-19T01:35:24.194Z,4.60
2018-12-19T01:37:51.690Z,4.37
2018-12-19T01:40:19.208Z,3.33
2018-12-19T01:42:46.759Z,4.23
2018-12-19T01:45:14.278Z,3.60
2018-12-19T01:47:41.773Z,4.03
2018-12-19T01:50:09.312Z,5.50
2018-12-19T01:52:36.810Z,5.57
2018-12-19T01:55:04.418Z,4.27
2018-12-19T01:57:31.962Z,5.20
2018-12-19T01:59:59.518Z,3.97
2018-12-19T02:02:27.033Z,3.87
2018-12-19T02:04:54.541Z,4.67
2018-12-19T02:07:22.069Z,4.50
2018-12-19T02:09:49.567Z,4.07
2018-12-19T02:12:17.133Z,3.97
2018-12-19T02:14:44.693Z,4.23
2018-12-19T02:17:12.209Z,4.90
2018-12-19T02:19:39.714Z,4.20
2018-12-19T02:22:07.233Z,3.87
2018-12-19T02:24:34.729Z,4.07
2018-12-19T02:27:02.369Z,5.03
2018-12-19T02:29:29.873Z,4.70
2018-12-19T02:31:57.394Z,5.30
2018-12-19T02:34:24.898Z,4.73
2018-12-19T02:36:52.634Z,4.63
2018-12-19T02:39:20.749Z,4.80
2018-12-19T02:41:48.770Z,4.63
2018-12-19T02:44:16.648Z,5.40
2018-12-19T02:46:44.744Z,5.00
2018-12-19T02:49:12.684Z,4.07
2018-12-19T02:51:40.699Z,4.30
2018-12-19T02:54:08.702Z,5.87
2018-12-19T02:56:36.559Z,4.03
2018-12-19T02:59:04.441Z,5.93
2018-12-19T03:01:32.021Z,4.50
2018-12-19T03:03:59.836Z,6.57
2018-12-19T03:06:27.659Z,5.27
2018-12-19T03:08:55.502Z,5.00
2018-12-19T03:11:25.444Z,5.40
2018-12-19T03:13:54.124Z,6.00
2018-12-19T03:16:22.356Z,5.93
2018-12-19T03:18:50.381Z,5.07
2018-12-19T03:21:18.263Z,5.77
2018-12-19T03:23:46.388Z,5.40
2018-12-19T03:26:14.329Z,5.60
2018-12-19T03:28:42.181Z,4.80
2018-12-19T03:31:10.146Z,5.43
2018-12-19T03:33:39.684Z,5.17
2018-12-19T03:36:08.205Z,5.53
2018-12-19T03:38:36.259Z,5.90
2018-12-19T03:41:04.095Z,5.53
2018-12-19T03:43:32.090Z,7.23
2018-12-19T03:46:00.103Z,5.63
2018-12-19T03:48:33.797Z,6.50
2018-12-19T03:51:01.388Z,6.43
2018-12-19T03:53:28.890Z,5.97
2018-12-19T03:55:56.405Z,7.23
2018-12-19T03:58:23.905Z,6.07
2018-12-19T04:00:51.443Z,6.07
2018-12-19T04:03:18.987Z,7.87
2018-12-19T04:05:46.601Z,7.60
2018-12-19T04:08:14.124Z,5.97
2018-12-19T04:10:41.621Z,6.30
2018-12-19T04:13:09.150Z,6.93
2018-12-19T04:15:36.689Z,7.40
2018-12-19T04:18:04.215Z,7.03
2018-12-19T04:20:31.724Z,6.83
2018-12-19T04:22:59.273Z,5.80
2018-12-19T04:25:26.778Z,6.57
2018-12-19T04:27:54.306Z,7.70
2018-12-19T04:30:21.806Z,6.40
2018-12-19T04:32:49.729Z,8.73
2018-12-19T04:35:17.294Z,8.60
2018-12-19T04:37:44.819Z,7.80
2018-12-19T04:40:12.393Z,8.83
2018-12-19T04:42:39.916Z,8.27
2018-12-19T04:45:07.465Z,7.90
2018-12-19T04:47:34.989Z,8.20
2018-12-19T04:50:02.550Z,10.07
2018-12-19T04:52:30.089Z,7.30
2018-12-19T04:54:57.587Z,8.60
2018-12-19T04:57:25.107Z,8.73
2018-12-19T04:59:52.607Z,7.67
2018-12-19T05:02:20.125Z,7.20
2018-12-19T05:04:47.625Z,8.20
2018-12-19T05:07:15.145Z,7.90
2018-12-19T05:09:42.646Z,7.77
2018-12-19T05:12:10.169Z,10.73
2018-12-19T05:14:37.820Z,9.07
2018-12-19T05:17:05.339Z,8.80
2018-12-19T05:19:32.833Z,8.47
2018-12-19T05:22:00.364Z,6.67
2018-12-19T05:24:27.861Z,8.93
2018-12-19T05:26:55.378Z,8.97
2018-12-19T05:29:22.879Z,8.33
2018-12-19T05:31:50.410Z,8.87
2018-12-19T05:34:17.940Z,8.77
2018-12-19T05:36:45.437Z,8.77
2018-12-19T05:39:12.965Z,8.97
2018-12-19T05:41:40.456Z,9.23
2018-12-19T05:44:07.980Z,7.30
2018-12-19T05:46:35.497Z,7.40
2018-12-19T05:49:03.073Z,9.37
2018-12-19T05:51:30.626Z,10.17
2018-12-19T05:53:58.149Z,9.40
2018-12-19T05:56:25.649Z,8.83
2018-12-19T05:58:53.349Z,9.10
2018-12-19T06:01:20.850Z,7.80
2018-12-19T06:03:48.374Z,7.67
2018-12-19T06:06:15.870Z,9.77
2018-12-19T06:08:43.421Z,8.87
2018-12-19T06:11:10.965Z,8.17
2018-12-19T06:13:38.508Z,8.87
2018-12-19T06:16:06.044Z,7.53
2018-12-19T06:18:33.609Z,6.90
2018-12-19T06:21:01.113Z,8.23
2018-12-19T06:23:28.634Z,7.43
2018-12-19T06:25:56.125Z,8.13
2018-12-19T06:28:23.646Z,8.13
2018-12-19T06:30:51.208Z,7.87
2018-12-19T06:33:18.725Z,7.33
2018-12-19T06:35:46.221Z,7.83
2018-12-19T06:38:13.869Z,9.20
2018-12-19T06:40:41.442Z,9.10
2018-12-19T06:43:08.963Z,8.70
2018-12-19T06:45:36.460Z,7.03
2018-12-19T06:48:04.387Z,9.57
2018-12-19T06:50:32.221Z,9.47
2018-12-19T06:53:00.183Z,8.43
2018-12-19T06:55:28.319Z,9.73
2018-12-19T06:57:56.249Z,9.57
2018-12-19T07:00:23.837Z,9.93
2018-12-19T07:02:51.571Z,9.83
2018-12-19T07:05:19.179Z,10.83
2018-12-19T07:07:46.744Z,8.70
2018-12-19T07:10:14.290Z,9.60
2018-12-19T07:12:41.793Z,10.30
2018-12-19T07:15:09.377Z,10.30
2018-12-19T07:17:36.884Z,10.60
2018-12-19T07:20:04.813Z,12.07
2018-12-19T07:22:32.317Z,10.50
2018-12-19T07:24:59.841Z,10.27
2018-12-19T07:27:27.350Z,10.90
2018-12-19T07:29:54.873Z,9.53
2018-12-19T07:32:22.550Z,10.47
2018-12-19T07:34:50.083Z,13.50
2018-12-19T07:37:17.581Z,11.87
2018-12-19T07:39:45.109Z,10.90
2018-12-19T07:42:12.614Z,13.90
2018-12-19T07:44:40.149Z,10.73
2018-12-19T07:47:08.105Z,12.30
2018-12-19T07:49:36.074Z,12.63
2018-12-19T07:52:03.702Z,12.43
2018-12-19T07:54:31.563Z,12.20
2018-12-19T07:57:00.432Z,11.50
2018-12-19T07:59:27.934Z,10.97
2018-12-19T08:01:56.064Z,11.20
2018-12-19T08:04:24.094Z,14.60
2018-12-19T08:06:52.495Z,12.07
2018-12-19T08:09:20.125Z,12.07
2018-12-19T08:11:48.145Z,11.40
2018-12-19T08:14:16.107Z,12.63
2018-12-19T08:16:43.677Z,14.23
2018-12-19T08:19:11.721Z,13.30
2018-12-19T08:21:39.687Z,12.47
2018-12-19T08:24:07.275Z,14.03
2018-12-19T08:26:34.778Z,12.80
2018-12-19T08:29:02.296Z,13.23
2018-12-19T08:31:30.045Z,13.40
2018-12-19T08:33:57.562Z,11.87
2018-12-19T08:36:25.385Z,14.53
2018-12-19T08:38:52.905Z,14.30
2018-12-19T08:41:20.415Z,10.77
2018-12-19T08:43:47.938Z,12.73
2018-12-19T08:46:15.438Z,11.90
2018-12-19T08:48:42.965Z,11.23
2018-12-19T08:51:10.477Z,14.97
2018-12-19T08:53:38.149Z,11.10
2018-12-19T08:56:05.653Z,12.03
2018-12-19T08:58:33.172Z,13.83
2018-12-19T09:01:00.669Z,14.90
2018-12-19T09:03:28.193Z,12.90
2018-12-19T09:05:55.689Z,12.50
2018-12-19T09:08:23.209Z,16.50
2018-12-19T09:10:50.701Z,13.53
2018-12-19T09:13:18.229Z,14.40
2018-12-19T09:15:50.840Z,13.23
2018-12-19T09:18:18.964Z,11.07
2018-12-19T09:20:46.826Z,14.20
2018-12-19T09:23:14.598Z,13.47
2018-12-19T09:25:42.189Z,13.60
2018-12-19T09:28:10.211Z,15.13
2018-12-19T09:30:38.309Z,11.17
2018-12-19T09:33:06.074Z,14.83
2018-12-19T09:35:33.673Z,12.17
2018-12-19T09:38:01.173Z,12.23
2018-12-19T09:40:28.701Z,12.50
2018-12-19T09:42:56.213Z,13.77
2018-12-19T09:45:23.789Z,12.80
2018-12-19T09:47:51.287Z,13.30
2018-12-19T09:50:18.861Z,13.53
2018-12-19T09:52:46.362Z,13.47
2018-12-19T09:55:13.879Z,12.63
2018-12-19T09:57:41.532Z,12.77
2018-12-19T10:00:11.755Z,15.87
2018-12-19T10:02:39.869Z,11.17
2018-12-19T10:05:07.477Z,12.27
2018-12-19T10:07:34.981Z,11.63
2018-12-19T10:10:02.566Z,13.07
2018-12-19T10:12:30.071Z,11.33
2018-12-19T10:14:57.665Z,12.80
2018-12-19T10:17:25.175Z,12.07
2018-12-19T10:19:52.701Z,13.17
2018-12-19T10:22:22.214Z,12.17
2018-12-19T10:24:55.314Z,12.03
2018-12-19T10:27:23.954Z,12.47
2018-12-19T10:29:51.665Z,11.67
2018-12-19T10:32:19.170Z,11.47
2018-12-19T10:34:46.691Z,12.73
2018-12-19T10:37:14.193Z,11.87
2018-12-19T10:39:41.949Z,12.27
2018-12-19T10:42:09.449Z,12.93
2018-12-19T10:44:36.946Z,13.27
2018-12-19T10:47:04.591Z,11.90
2018-12-19T10:49:32.677Z,12.17
2018-12-19T10:52:00.201Z,12.20
2018-12-19T10:54:27.697Z,12.43
2018-12-19T10:56:55.422Z,11.93
2018-12-19T10:59:22.925Z,11.93
2018-12-19T11:01:50.448Z,11.87
2018-12-19T11:04:17.951Z,12.00
2018-12-19T11:06:46.315Z,12.17
2018-12-19T11:09:13.814Z,13.77
2018-12-19T11:11:41.333Z,14.97
2018-12-19T11:14:08.838Z,11.03
2018-12-19T11:16:36.356Z,13.03
2018-12-19T11:19:03.914Z,12.57
2018-12-19T11:21:31.481Z,10.90
2018-12-19T11:23:59.081Z,11.43
2018-12-19T11:26:27.549Z,12.90
2018-12-19T11:28:55.053Z,12.93
2018-12-19T11:31:22.684Z,13.53
2018-12-19T11:33:50.180Z,9.40
2018-12-19T11:36:17.697Z,11.43
2018-12-19T11:38:45.192Z,9.93
2018-12-19T11:41:12.710Z,10.00
2018-12-19T11:43:40.208Z,12.07
2018-12-19T11:46:07.741Z,11.07
2018-12-19T11:48:35.241Z,13.50
2018-12-19T11:51:02.873Z,11.83
2018-12-19T11:53:30.389Z,11.70
2018-12-19T11:55:57.933Z,11.77
2018-12-19T11:58:25.449Z,12.60
2018-12-19T12:00:53.001Z,10.57
2018-12-19T12:03:20.517Z,12.10
2018-12-19T12:05:48.191Z,12.47
2018-12-19T12:08:15.710Z,10.97
2018-12-19T12:10:43.213Z,11.83
2018-12-19T12:13:10.784Z,9.13
2018-12-19T12:15:38.334Z,10.97
2018-12-19T12:18:05.849Z,11.60
2018-12-19T12:20:33.355Z,10.67
2018-12-19T12:23:00.878Z,9.97
2018-12-19T12:25:28.376Z,10.30
2018-12-19T12:27:55.899Z,10.30
2018-12-19T12:30:23.457Z,11.60
2018-12-19T12:32:50.981Z,8.77
2018-12-19T12:35:18.489Z,9.47
2018-12-19T12:37:46.004Z,9.20
2018-12-19T12:40:13.517Z,11.20
2018-12-19T12:42:41.038Z,10.80
2018-12-19T12:45:08.636Z,10.07
2018-12-19T12:47:36.201Z,9.77
2018-12-19T12:50:04.894Z,9.20
2018-12-19T12:52:32.444Z,10.43
2018-12-19T12:54:59.941Z,8.63
2018-12-19T12:57:27.442Z,9.13
2018-12-19T12:59:54.966Z,11.67
2018-12-19T13:02:22.467Z,9.37
2018-12-19T13:04:49.989Z,8.33
2018-12-19T13:07:17.533Z,9.63
2018-12-19T13:09:45.045Z,8.87
2018-12-19T13:12:12.600Z,9.87
2018-12-19T13:14:40.118Z,9.43
2018-12-19T13:17:07.741Z,9.30
2018-12-19T13:19:35.258Z,7.53
2018-12-19T13:22:02.754Z,6.67
2018-12-19T13:24:30.347Z,8.77
2018-12-19T13:26:57.851Z,6.47
2018-12-19T13:29:25.366Z,7.67
2018-12-19T13:31:53.112Z,6.67
2018-12-19T13:34:20.627Z,6.80
2018-12-19T13:36:48.159Z,7.30
2018-12-19T13:39:15.752Z,7.97
2018-12-19T13:41:43.261Z,9.13
2018-12-19T13:44:10.853Z,8.63
2018-12-19T13:46:38.354Z,6.80
2018-12-19T13:49:05.868Z,7.73
2018-12-19T13:51:33.372Z,7.50
2018-12-19T13:54:00.902Z,7.90
2018-12-19T13:56:28.404Z,7.73
2018-12-19T13:58:56.170Z,8.17
2018-12-19T14:01:24.009Z,8.47
2018-12-19T14:03:51.529Z,9.57
2018-12-19T14:06:19.030Z,9.07
2018-12-19T14:08:46.549Z,10.00
2018-12-19T14:11:14.096Z,12.80
2018-12-19T14:13:41.615Z,9.40
2018-12-19T14:16:09.113Z,9.70
2018-12-19T14:18:36.612Z,10.40
2018-12-19T14:21:04.137Z,10.93
2018-12-19T14:23:31.639Z,11.10
2018-12-19T14:25:59.157Z,10.00
2018-12-19T14:28:26.657Z,10.27
2018-12-19T14:30:54.173Z,10.37
2018-12-19T14:33:21.684Z,12.00
2018-12-19T14:35:49.203Z,9.80
2018-12-19T14:38:16.704Z,10.10
2018-12-19T14:40:44.222Z,9.87
2018-12-19T14:43:11.737Z,9.73
2018-12-19T14:45:39.257Z,9.97
2018-12-19T14:48:06.762Z,9.50
2018-12-19T14:50:34.325Z,9.67
2018-12-19T14:53:01.830Z,10.63
2018-12-19T14:55:29.346Z,10.40
2018-12-19T14:57:56.849Z,10.97
2018-12-19T15:00:24.365Z,10.57
2018-12-19T15:02:51.871Z,10.53
2018-12-19T15:05:19.393Z,9.90
2018-12-19T15:07:46.891Z,10.53
2018-12-19T15:10:14.460Z,10.17
2018-12-19T15:12:41.960Z,9.80
2018-12-19T15:15:09.488Z,9.07
2018-12-19T15:17:36.989Z,11.47
2018-12-19T15:20:04.996Z,9.47
2018-12-19T15:22:32.501Z,9.10
2018-12-19T15:25:00.017Z,12.57
2018-12-19T15:27:27.514Z,9.43
2018-12-19T15:29:55.078Z,9.60
2018-12-19T15:32:22.575Z,10.50
2018-12-19T15:34:50.081Z,11.93
2018-12-19T15:37:17.597Z,11.87
2018-12-19T15:39:45.099Z,11.30
2018-12-19T15:42:12.616Z,9.70
2018-12-19T15:44:40.126Z,10.37
2018-12-19T15:47:07.642Z,9.97
2018-12-19T15:49:35.151Z,10.67
2018-12-19T15:52:02.673Z,10.27
2018-12-19T15:54:30.173Z,10.17
2018-12-19T15:56:57.804Z,11.67
2018-12-19T15:59:25.316Z,10.03
2018-12-19T16:01:52.837Z,11.77
2018-12-19T16:04:20.342Z,10.23
2018-12-19T16:06:47.901Z,9.17
2018-12-19T16:09:15.401Z,9.13
2018-12-19T16:11:42.912Z,9.50
2018-12-19T16:14:10.477Z,9.13
2018-12-19T16:16:38.050Z,11.03
2018-12-19T16:19:05.549Z,10.57
2018-12-19T16:21:33.074Z,10.30
2018-12-19T16:24:00.774Z,10.37
2018-12-19T16:26:28.299Z,9.30
2018-12-19T16:28:55.797Z,9.77
2018-12-19T16:31:23.822Z,9.90
2018-12-19T16:33:51.477Z,8.53
2018-12-19T16:36:18.997Z,10.33
2018-12-19T16:38:46.498Z,9.73
2018-12-19T16:41:14.062Z,9.77
2018-12-19T16:43:41.569Z,11.07
2018-12-19T16:46:09.106Z,10.20
2018-12-19T16:48:36.785Z,9.47
2018-12-19T16:51:04.283Z,9.07
2018-12-19T16:53:31.805Z,10.63
2018-12-19T16:55:59.305Z,10.77
2018-12-19T16:58:26.831Z,10.70
2018-12-19T17:00:54.329Z,10.27
2018-12-19T17:03:21.870Z,8.77
2018-12-19T17:05:49.367Z,8.40
2018-12-19T17:08:16.887Z,9.63
2018-12-19T17:10:44.391Z,13.03
2018-12-19T17:13:11.908Z,11.40
2018-12-19T17:15:39.412Z,10.47
2018-12-19T17:18:06.928Z,11.63
2018-12-19T17:20:34.431Z,10.90
2018-12-19T17:23:01.958Z,10.83
2018-12-19T17:25:29.458Z,12.00
2018-12-19T17:27:56.972Z,12.67
2018-12-19T17:30:24.475Z,10.07
2018-12-19T17:32:51.998Z,13.80
2018-12-19T17:35:19.508Z,11.07
2018-12-19T17:37:47.105Z,12.37
2018-12-19T17:40:14.650Z,12.43
2018-12-19T17:42:42.181Z,10.87
2018-12-19T17:45:09.681Z,12.77
2018-12-19T17:47:37.224Z,11.57
2018-12-19T17:50:05.826Z,11.77
2018-12-19T17:52:33.393Z,10.17
2018-12-19T17:55:00.894Z,12.30
2018-12-19T17:57:28.414Z,12.73
2018-12-19T17:59:55.923Z,12.10
2018-12-19T18:02:23.493Z,12.77
2018-12-19T18:04:51.095Z,13.53
2018-12-19T18:07:18.631Z,13.80
2018-12-19T18:09:46.476Z,11.97
2018-12-19T18:12:15.571Z,14.33
2018-12-19T18:14:43.292Z,10.33
2018-12-19T18:17:11.457Z,12.03
2018-12-19T18:19:39.318Z,10.60
2018-12-19T18:22:07.107Z,11.20
2018-12-19T18:24:35.271Z,10.70
2018-12-19T18:27:03.348Z,13.57
2018-12-19T18:29:31.264Z,12.30
2018-12-19T18:31:59.253Z,10.17
2018-12-19T18:34:27.205Z,10.53
2018-12-19T18:36:55.085Z,10.20
2018-12-19T18:39:26.271Z,11.10
2018-12-19T18:41:54.661Z,12.30
2018-12-19T18:44:22.651Z,10.53
2018-12-19T18:46:50.559Z,10.87
2018-12-19T18:49:20.744Z,12.03
2018-12-19T18:51:48.513Z,10.77
2018-12-19T18:54:16.444Z,14.90
2018-12-19T18:56:44.770Z,12.80
2018-12-19T18:59:12.823Z,11.30
2018-12-19T19:01:40.774Z,10.07
2018-12-19T19:04:08.349Z,10.37
2018-12-19T19:06:36.389Z,10.83
2018-12-19T19:09:05.429Z,11.13
2018-12-19T19:11:33.493Z,9.63
2018-12-19T19:14:01.101Z,11.60
2018-12-19T19:16:29.039Z,10.17
2018-12-19T19:18:56.610Z,11.57
2018-12-19T19:21:24.503Z,10.43
2018-12-19T19:23:52.169Z,12.60
2018-12-19T19:26:19.665Z,11.07
2018-12-19T19:28:47.294Z,10.50
2018-12-19T19:31:14.795Z,11.03
2018-12-19T19:33:42.298Z,11.07
2018-12-19T19:36:10.105Z,11.13
2018-12-19T19:38:37.635Z,9.73
2018-12-19T19:41:05.254Z,10.20
2018-12-19T19:43:32.759Z,10.20
2018-12-19T19:46:00.281Z,11.60
2018-12-19T19:48:27.777Z,11.07
2018-12-19T19:50:55.301Z,11.17
2018-12-19T19:53:22.804Z,11.10
2018-12-19T19:55:50.402Z,10.53
2018-12-19T19:58:17.963Z,10.37
2018-12-19T20:00:45.482Z,12.50
2018-12-19T20:03:13.041Z,13.03
2018-12-19T20:05:40.561Z,14.17
2018-12-19T20:08:08.057Z,13.00
2018-12-19T20:10:35.572Z,10.33
2018-12-19T20:13:03.122Z,13.93
2018-12-19T20:15:30.988Z,12.63
2018-12-19T20:17:59.067Z,13.13
2018-12-19T20:20:26.642Z,11.07
2018-12-19T20:22:54.664Z,12.93
2018-12-19T20:25:22.664Z,12.40
2018-12-19T20:27:50.486Z,18.70
2018-12-19T20:30:18.492Z,21.73
2018-12-19T20:32:46.382Z,14.97
2018-12-19T20:35:14.419Z,14.63
2018-12-19T20:37:42.362Z,13.93
2018-12-19T20:40:10.169Z,13.77
2018-12-19T20:42:37.860Z,11.27
2018-12-19T20:45:05.465Z,11.03
2018-12-19T20:47:33.321Z,13.87
2018-12-19T20:50:00.884Z,14.13
2018-12-19T20:52:28.802Z,10.97
2018-12-19T20:54:56.462Z,10.60
2018-12-19T20:57:24.262Z,12.03
2018-12-19T20:59:52.008Z,11.53
2018-12-19T21:02:19.541Z,11.67
2018-12-19T21:04:47.447Z,12.10
2018-12-19T21:07:15.351Z,9.90
2018-12-19T21:09:43.746Z,11.90
2018-12-19T21:12:11.335Z,12.50
2018-12-19T21:14:39.307Z,11.20
2018-12-19T21:20:13.180Z,12.87
2018-12-19T21:22:41.224Z,12.50
2018-12-19T21:25:09.326Z,11.97
2018-12-19T21:27:36.877Z,10.40
2018-12-19T21:30:07.005Z,12.83
2018-12-19T21:32:34.532Z,14.30
2018-12-19T21:35:02.433Z,14.43
2018-12-19T21:37:29.970Z,13.53
2018-12-19T21:39:57.892Z,13.90
2018-12-19T21:42:25.874Z,12.93
2018-12-19T21:44:53.656Z,14.90
2018-12-19T21:47:21.304Z,10.97
2018-12-19T21:49:49.158Z,14.17
2018-12-19T21:52:16.787Z,13.43
2018-12-19T21:54:44.501Z,14.03
2018-12-19T21:57:12.282Z,12.37
2018-12-19T21:59:39.969Z,13.30
2018-12-19T22:02:07.828Z,13.07
2018-12-19T22:04:35.402Z,17.47
2018-12-19T22:07:03.215Z,14.37
2018-12-19T22:09:30.840Z,12.00
2018-12-19T22:11:58.872Z,14.43
2018-12-19T22:14:26.441Z,11.93
2018-12-19T22:16:59.763Z,14.37
2018-12-19T22:19:28.076Z,12.47
2018-12-19T22:21:56.281Z,12.37
2018-12-19T22:24:23.894Z,11.33
2018-12-19T22:26:51.480Z,14.20
2018-12-19T22:29:19.021Z,13.93
2018-12-19T22:31:46.739Z,12.77
2018-12-19T22:34:14.301Z,13.70
2018-12-19T22:36:41.861Z,14.03
2018-12-19T22:39:11.473Z,12.93
2018-12-19T22:41:38.999Z,14.10
2018-12-19T22:44:08.133Z,12.23
2018-12-19T22:46:35.972Z,14.67
2018-12-19T22:49:03.569Z,14.00
2018-12-19T22:51:31.189Z,14.27
2018-12-19T22:53:58.816Z,14.27
2018-12-19T22:56:26.349Z,14.33
2018-12-19T22:58:53.903Z,14.70
2018-12-19T23:01:27.357Z,14.57
2018-12-19T23:04:00.605Z,12.40
2018-12-19T23:06:28.202Z,13.97
2018-12-19T23:08:55.772Z,12.73
2018-12-19T23:11:23.297Z,15.03
2018-12-19T23:13:51.015Z,14.70
2018-12-19T23:16:18.795Z,13.60
2018-12-19T23:18:46.493Z,13.70
2018-12-19T23:21:14.112Z,13.93
2018-12-19T23:23:41.841Z,16.40
2018-12-19T23:26:09.404Z,14.83
2018-12-19T23:28:37.044Z,13.47
2018-12-19T23:31:04.818Z,14.73
2018-12-19T23:33:32.382Z,15.67
2018-12-19T23:35:59.910Z,16.60
2018-12-19T23:38:27.451Z,14.03
2018-12-19T23:40:55.009Z,14.93
2018-12-19T23:43:22.705Z,14.23
2018-12-19T23:45:50.271Z,15.63
2018-12-19T23:48:18.041Z,14.27
2018-12-19T23:50:45.921Z,16.33
2018-12-19T23:53:13.584Z,14.13
2018-12-19T23:55:41.274Z,15.97
2018-12-19T23:58:08.920Z,14.87
